TimeEDT,TemperatureF,Dew PointF,Humidity,Sea Level PressureIn,VisibilityMPH,Wind Direction,Wind SpeedMPH,Gust SpeedMPH,PrecipitationIn,Events,Conditions,WindDirDegrees,DateUTC
12:54 AM,48.0,37.9,68,29.74,10.0,West,4.6,-,0.00,,Overcast,280,2012-11-02 04:54:00
1:54 AM,48.9,35.1,59,29.74,10.0,WNW,5.8,-,N/A,,Overcast,290,2012-11-02 05:54:00
2:54 AM,48.9,35.1,59,29.74,10.0,West,6.9,-,0.00,,Overcast,270,2012-11-02 06:54:00
3:54 AM,48.0,34.0,58,29.73,10.0,West,6.9,-,N/A,,Overcast,270,2012-11-02 07:54:00
4:54 AM,46.9,33.1,59,29.73,10.0,West,6.9,-,N/A,,Partly Cloudy,270,2012-11-02 08:54:00
5:54 AM,45.0,33.1,63,29.74,10.0,West,4.6,-,N/A,,Clear,260,2012-11-02 09:54:00
6:54 AM,43.0,34.0,71,29.74,10.0,West,3.5,-,N/A,,Partly Cloudy,260,2012-11-02 10:54:00
7:54 AM,44.1,35.1,71,29.75,10.0,WSW,3.5,-,N/A,,Partly Cloudy,250,2012-11-02 11:54:00
8:54 AM,45.0,36.0,71,29.77,10.0,WSW,3.5,-,N/A,,Scattered Clouds,250,2012-11-02 12:54:00
9:54 AM,48.9,36.0,61,29.77,10.0,West,5.8,-,N/A,,Clear,260,2012-11-02 13:54:00
10:54 AM,51.1,35.1,54,29.76,10.0,West,8.1,-,N/A,,Mostly Cloudy,260,2012-11-02 14:54:00
11:54 AM,52.0,32.0,47,29.75,10.0,WNW,10.4,17.3,N/A,,Mostly Cloudy,290,2012-11-02 15:54:00
12:54 PM,54.0,32.0,43,29.74,10.0,WNW,12.7,18.4,N/A,,Scattered Clouds,290,2012-11-02 16:54:00
1:54 PM,54.0,32.0,43,29.73,10.0,West,17.3,24.2,N/A,,Overcast,280,2012-11-02 17:54:00
2:54 PM,53.1,32.0,45,29.74,10.0,WNW,12.7,20.7,N/A,,Mostly Cloudy,300,2012-11-02 18:54:00
3:54 PM,52.0,32.0,47,29.75,10.0,WNW,13.8,24.2,N/A,,Mostly Cloudy,290,2012-11-02 19:54:00
4:54 PM,53.1,30.0,41,29.76,10.0,West,11.5,18.4,N/A,,Mostly Cloudy,270,2012-11-02 20:54:00
5:54 PM,51.1,30.0,44,29.78,10.0,WNW,6.9,16.1,N/A,,Overcast,300,2012-11-02 21:54:00
6:54 PM,50.0,30.9,48,29.82,10.0,WNW,9.2,-,N/A,,Overcast,300,2012-11-02 22:54:00
7:54 PM,48.9,30.9,50,29.84,10.0,West,9.2,-,N/A,,Partly Cloudy,280,2012-11-02 23:54:00
8:54 PM,48.0,30.9,52,29.86,10.0,West,8.1,-,N/A,,Clear,280,2012-11-03 00:54:00
9:54 PM,46.9,30.9,54,29.87,10.0,West,8.1,-,N/A,,Scattered Clouds,280,2012-11-03 01:54:00
10:54 PM,48.0,30.9,52,29.88,10.0,WNW,6.9,20.7,N/A,,Overcast,290,2012-11-03 02:54:00
11:54 PM,46.0,30.0,54,29.89,10.0,WNW,5.8,-,N/A,,Partly Cloudy,290,2012-11-03 03:54:00